Time;durP1;ratioP1;P1;durP2;ratioP2;P2;SDS_P1;SDS_P2;PMS_P1;PMS_P2;Temp;Humidity;BMP_temperature;BMP_pressure;BME280_temperature;BME280_humidity;BME280_pressure;Samples;Min_cycle;Max_cycle;Signal;HPM_P1;HPM_P2
2023/11/16 00:01:01;;;;;;;9.40;2.40;;;9.40;99.90;;;;;;5107304;28;20456;-79
2023/11/16 00:03:29;;;;;;;8.43;2.00;;;9.50;99.90;;;;;;5119923;28;20967;-82
2023/11/16 00:05:56;;;;;;;7.70;2.70;;;9.40;99.90;;;;;;5109100;28;20522;-81
2023/11/16 00:08:22;;;;;;;5.60;2.80;;;9.50;99.90;;;;;;5120340;28;20456;-80
2023/11/16 00:10:54;;;;;;;6.50;2.30;;;9.40;99.90;;;;;;5113726;28;20515;-80
2023/11/16 00:13:21;;;;;;;10.60;2.97;;;9.40;99.90;;;;;;5119256;28;20835;-81
2023/11/16 00:15:48;;;;;;;6.13;2.40;;;9.50;99.90;;;;;;5103791;28;20505;-81
2023/11/16 00:18:18;;;;;;;6.83;2.13;;;9.60;99.90;;;;;;5115248;28;20455;-81
2023/11/16 00:20:45;;;;;;;6.10;1.90;;;9.50;99.90;;;;;;5119309;28;20903;-82
2023/11/16 00:23:12;;;;;;;7.97;2.80;;;9.50;99.90;;;;;;5119256;28;20455;-81
2023/11/16 00:25:39;;;;;;;9.13;3.13;;;9.50;99.90;;;;;;5115723;28;20477;-81
2023/11/16 00:28:07;;;;;;;7.37;2.20;;;9.40;99.90;;;;;;5114151;28;20831;-81
2023/11/16 00:30:34;;;;;;;7.33;1.93;;;9.40;99.90;;;;;;5118487;28;20488;-82
2023/11/16 00:33:00;;;;;;;9.10;2.20;;;9.50;99.90;;;;;;5111643;28;20459;-80
2023/11/16 00:35:27;;;;;;;8.23;2.40;;;9.50;99.90;;;;;;5112085;28;20960;-80
2023/11/16 00:37:55;;;;;;;6.97;2.27;;;9.50;99.90;;;;;;5118311;28;20534;-81
2023/11/16 00:40:22;;;;;;;7.27;2.50;;;9.50;99.90;;;;;;5117778;28;20451;-81
2023/11/16 00:42:50;;;;;;;7.37;2.20;;;9.50;99.90;;;;;;5099210;28;20448;-79
2023/11/16 00:45:19;;;;;;;5.40;2.10;;;9.50;99.90;;;;;;5103289;28;20495;-82
2023/11/16 00:47:46;;;;;;;9.27;2.67;;;9.50;99.90;;;;;;5102170;28;20480;-81
2023/11/16 00:50:13;;;;;;;9.20;2.33;;;9.50;99.90;;;;;;5102761;28;20491;-81
2023/11/16 00:52:40;;;;;;;10.60;2.57;;;9.40;99.90;;;;;;5119587;28;20455;-82
2023/11/16 00:55:08;;;;;;;10.03;2.97;;;9.50;99.90;;;;;;5119139;28;20478;-82
2023/11/16 00:57:35;;;;;;;11.13;2.93;;;9.50;99.90;;;;;;5108735;28;20455;-82
2023/11/16 01:00:03;;;;;;;14.17;3.17;;;9.50;99.90;;;;;;5112494;28;20455;-82
2023/11/16 01:02:31;;;;;;;9.63;2.47;;;9.60;99.90;;;;;;5117697;28;20524;-81
2023/11/16 01:04:59;;;;;;;10.00;2.00;;;9.50;99.90;;;;;;5109189;28;20526;-83
2023/11/16 01:07:27;;;;;;;11.40;2.20;;;9.50;99.90;;;;;;5116025;27;20462;-81
2023/11/16 01:09:54;;;;;;;5.07;2.30;;;9.50;99.90;;;;;;5121124;28;20509;-83
2023/11/16 01:12:20;;;;;;;6.57;2.03;;;9.40;99.90;;;;;;5124932;28;20431;-81
2023/11/16 01:14:52;;;;;;;10.27;3.07;;;9.50;99.90;;;;;;5126769;28;20599;-80
2023/11/16 01:17:22;;;;;;;6.20;2.30;;;9.50;99.90;;;;;;5127167;28;20935;-82
2023/11/16 01:19:51;;;;;;;8.37;2.50;;;9.50;99.90;;;;;;5112839;28;20510;-81
2023/11/16 01:22:21;;;;;;;5.67;2.60;;;9.30;99.90;;;;;;5105168;28;20466;-82
2023/11/16 01:24:48;;;;;;;6.30;2.07;;;9.40;99.90;;;;;;5098376;28;20459;-81
2023/11/16 01:27:18;;;;;;;6.70;2.80;;;9.40;99.90;;;;;;5108474;28;20456;-81
2023/11/16 01:29:45;;;;;;;5.00;2.13;;;9.40;99.90;;;;;;5103054;28;20489;-81
2023/11/16 01:32:12;;;;;;;7.33;2.40;;;9.50;99.90;;;;;;5116684;28;20457;-82
2023/11/16 01:34:42;;;;;;;7.50;2.30;;;9.50;99.90;;;;;;5096776;28;20458;-81
2023/11/16 01:37:11;;;;;;;5.73;2.20;;;9.40;99.90;;;;;;5111630;28;20479;-82
2023/11/16 01:39:39;;;;;;;13.23;3.33;;;9.50;99.90;;;;;;5113267;28;20484;-79
2023/11/16 01:42:08;;;;;;;8.57;2.27;;;9.40;99.90;;;;;;5102479;28;20481;-80
2023/11/16 01:44:35;;;;;;;8.97;2.57;;;9.40;99.90;;;;;;5102806;28;20461;-80
2023/11/16 01:47:02;;;;;;;5.50;2.17;;;9.30;99.90;;;;;;5116033;28;20474;-79
2023/11/16 01:49:30;;;;;;;5.07;2.20;;;9.40;99.90;;;;;;5108099;27;20505;-82
2023/11/16 01:51:57;;;;;;;7.27;2.70;;;9.40;99.90;;;;;;5113356;28;20548;-81
2023/11/16 01:54:26;;;;;;;6.70;2.60;;;9.50;99.90;;;;;;5115850;28;20541;-82
2023/11/16 01:56:53;;;;;;;9.13;2.47;;;9.50;99.90;;;;;;5109580;28;20491;-82
2023/11/16 01:59:21;;;;;;;7.83;3.13;;;9.50;99.90;;;;;;5103002;28;20484;-82
2023/11/16 02:01:48;;;;;;;8.20;2.20;;;9.50;99.90;;;;;;5112901;28;20457;-81
2023/11/16 02:04:15;;;;;;;8.07;3.20;;;9.50;99.90;;;;;;5112492;28;21000;-82
2023/11/16 02:06:42;;;;;;;5.50;2.00;;;9.60;99.90;;;;;;5102985;28;20472;-81
2023/11/16 02:09:10;;;;;;;12.50;2.80;;;9.50;99.90;;;;;;5108967;27;20491;-82
2023/11/16 02:11:38;;;;;;;7.80;2.40;;;9.60;99.90;;;;;;5115998;28;20464;-80
2023/11/16 02:14:05;;;;;;;9.83;2.50;;;9.50;99.90;;;;;;5116930;28;20861;-81
2023/11/16 02:16:32;;;;;;;5.63;2.63;;;9.50;99.90;;;;;;5116020;28;20483;-81
2023/11/16 02:19:17;;;;;;;9.93;2.53;;;9.50;99.90;;;;;;5117585;28;20463;-83
2023/11/16 02:21:46;;;;;;;11.60;2.57;;;9.50;99.90;;;;;;5107060;28;20452;-82
2023/11/16 02:24:14;;;;;;;5.97;2.90;;;9.50;99.90;;;;;;5117309;28;20557;-80
2023/11/16 02:26:42;;;;;;;9.50;2.97;;;9.50;99.90;;;;;;5104146;28;20481;-82
2023/11/16 02:29:09;;;;;;;3.80;1.60;;;9.40;99.90;;;;;;5099333;28;20514;-82
2023/11/16 02:31:36;;;;;;;5.73;2.20;;;9.40;99.90;;;;;;5101486;28;20523;-82
2023/11/16 02:34:03;;;;;;;9.97;3.07;;;9.40;99.90;;;;;;5116526;28;20460;-80
2023/11/16 02:36:30;;;;;;;5.40;2.23;;;9.40;99.90;;;;;;5106304;28;20574;-83
2023/11/16 02:38:59;;;;;;;9.03;2.70;;;9.40;99.90;;;;;;5107357;28;20895;-82
2023/11/16 02:41:27;;;;;;;8.20;2.00;;;9.30;99.90;;;;;;5097462;28;20461;-81
2023/11/16 02:43:54;;;;;;;7.07;2.53;;;9.30;99.90;;;;;;5117588;28;20515;-82
2023/11/16 02:46:21;;;;;;;8.20;2.40;;;9.30;99.90;;;;;;5098958;28;20525;-82
2023/11/16 02:48:48;;;;;;;7.47;2.80;;;9.30;99.90;;;;;;5111234;28;20552;-82
2023/11/16 02:51:15;;;;;;;5.60;2.33;;;9.30;99.90;;;;;;5111899;28;20507;-80
2023/11/16 02:53:43;;;;;;;6.67;1.70;;;9.20;99.90;;;;;;5115268;28;20840;-82
2023/11/16 02:56:13;;;;;;;7.00;2.70;;;9.30;99.90;;;;;;5109835;28;20508;-82
2023/11/16 02:58:43;;;;;;;7.00;2.10;;;9.40;99.90;;;;;;5107062;28;20455;-81
2023/11/16 03:01:13;;;;;;;8.30;2.97;;;9.40;99.90;;;;;;5110241;28;20455;-81
2023/11/16 03:03:40;;;;;;;10.63;2.50;;;9.40;99.90;;;;;;5105655;28;20460;-82
2023/11/16 03:06:09;;;;;;;13.70;3.87;;;9.40;99.90;;;;;;5097098;28;20469;-82
2023/11/16 03:08:35;;;;;;;7.13;2.50;;;9.40;99.90;;;;;;5112882;28;20456;-83
2023/11/16 03:11:03;;;;;;;10.33;2.70;;;9.40;99.90;;;;;;5107428;28;20480;-81
2023/11/16 03:13:29;;;;;;;9.20;2.63;;;9.50;99.90;;;;;;5107671;28;20492;-83
2023/11/16 03:15:58;;;;;;;6.27;2.10;;;9.50;99.90;;;;;;5111613;28;20481;-83
2023/11/16 03:18:25;;;;;;;7.33;3.27;;;9.40;99.90;;;;;;5116440;28;20457;-82
2023/11/16 03:20:52;;;;;;;7.03;2.43;;;9.40;99.90;;;;;;5116977;28;20456;-83
2023/11/16 03:23:19;;;;;;;7.10;3.00;;;9.50;99.90;;;;;;5116188;28;20840;-82
2023/11/16 03:25:46;;;;;;;6.57;2.20;;;9.40;99.90;;;;;;5107749;28;20476;-82
2023/11/16 03:28:27;;;;;;;13.57;2.37;;;9.40;99.90;;;;;;5100271;28;20462;-82
2023/11/16 03:30:54;;;;;;;5.20;2.67;;;9.50;99.90;;;;;;5110136;28;20514;-82
2023/11/16 03:33:22;;;;;;;7.70;3.33;;;9.50;99.90;;;;;;5116126;28;20459;-82
2023/11/16 03:35:49;;;;;;;8.07;2.40;;;9.50;99.90;;;;;;5108898;28;20472;-80
2023/11/16 03:38:18;;;;;;;6.77;2.10;;;9.50;99.90;;;;;;5104551;28;20984;-82
2023/11/16 03:40:45;;;;;;;5.63;2.47;;;9.50;99.90;;;;;;5108771;28;20450;-78
2023/11/16 03:43:12;;;;;;;13.10;3.13;;;9.40;99.90;;;;;;5117775;28;20459;-83
2023/11/16 03:45:39;;;;;;;6.57;3.70;;;9.40;99.90;;;;;;5108570;28;20890;-81
2023/11/16 03:48:06;;;;;;;11.70;3.07;;;9.30;99.90;;;;;;5117672;28;20519;-81
2023/11/16 03:50:34;;;;;;;9.60;3.10;;;9.40;99.90;;;;;;5107266;28;20580;-81
2023/11/16 03:53:01;;;;;;;7.27;2.50;;;9.40;99.90;;;;;;5107661;28;20461;-83
2023/11/16 03:55:28;;;;;;;10.73;2.83;;;9.40;99.90;;;;;;5111057;28;20897;-83
2023/11/16 03:57:54;;;;;;;6.17;2.17;;;9.30;99.90;;;;;;5111544;28;20856;-82
2023/11/16 04:00:22;;;;;;;6.63;2.43;;;9.40;99.90;;;;;;5121319;28;20481;-82
2023/11/16 04:02:49;;;;;;;6.77;2.60;;;9.30;99.90;;;;;;5120031;28;20452;-83
2023/11/16 04:05:18;;;;;;;8.77;2.60;;;9.30;99.90;;;;;;5105969;28;20475;-82
2023/11/16 04:07:46;;;;;;;6.73;2.37;;;9.30;99.90;;;;;;5111767;28;20465;-83
2023/11/16 04:10:13;;;;;;;5.60;2.10;;;9.20;99.90;;;;;;5100344;28;20492;-82
2023/11/16 04:12:41;;;;;;;9.50;2.97;;;9.10;99.90;;;;;;5107518;28;20533;-82
2023/11/16 04:15:09;;;;;;;7.20;2.80;;;9.10;99.90;;;;;;5105761;28;20476;-82
2023/11/16 04:17:37;;;;;;;7.17;2.70;;;9.10;99.90;;;;;;5124963;28;20460;-82
2023/11/16 04:20:07;;;;;;;9.30;3.40;;;9.10;99.90;;;;;;5118567;28;21023;-82
2023/11/16 04:22:38;;;;;;;5.93;3.23;;;9.10;99.90;;;;;;5125861;28;20467;-82
2023/11/16 04:25:11;;;;;;;10.47;2.73;;;9.00;99.90;;;;;;5121141;28;20476;-82
2023/11/16 04:27:38;;;;;;;9.80;3.10;;;9.00;99.90;;;;;;5121146;28;20465;-77
2023/11/16 04:30:06;;;;;;;6.90;3.20;;;9.00;99.90;;;;;;5109929;28;20494;-83
2023/11/16 04:32:33;;;;;;;8.77;3.30;;;9.00;99.90;;;;;;5114502;28;20489;-82
2023/11/16 04:35:00;;;;;;;8.63;3.73;;;8.90;99.90;;;;;;5120458;28;20839;-83
2023/11/16 04:37:27;;;;;;;8.87;2.80;;;8.90;99.90;;;;;;5119700;27;20958;-83
2023/11/16 04:39:54;;;;;;;8.27;2.60;;;8.90;99.90;;;;;;5107433;28;20544;-82
2023/11/16 04:42:22;;;;;;;11.60;3.17;;;9.00;99.90;;;;;;5125393;28;20523;-82
2023/11/16 04:44:49;;;;;;;7.87;3.00;;;8.90;99.90;;;;;;5122404;28;20516;-80
2023/11/16 04:47:16;;;;;;;6.07;2.73;;;8.90;99.90;;;;;;5120475;28;20531;-82
2023/11/16 04:49:43;;;;;;;8.47;3.07;;;9.00;99.90;;;;;;5108771;28;20465;-82
2023/11/16 04:52:11;;;;;;;9.60;3.33;;;9.00;99.90;;;;;;5102682;28;20469;-81
2023/11/16 04:54:37;;;;;;;11.57;3.50;;;9.00;99.90;;;;;;5102801;28;20906;-80
2023/11/16 04:57:07;;;;;;;11.67;3.23;;;9.00;99.90;;;;;;5103180;28;20477;-82
2023/11/16 04:59:35;;;;;;;7.67;2.90;;;8.90;99.90;;;;;;5110963;28;20491;-83
2023/11/16 05:02:01;;;;;;;9.83;2.90;;;8.90;99.90;;;;;;5116538;28;20972;-81
2023/11/16 05:04:28;;;;;;;8.30;5.67;;;8.90;99.90;;;;;;5115446;28;20460;-82
2023/11/16 05:06:55;;;;;;;16.87;3.50;;;8.80;99.90;;;;;;5104713;28;20479;-83
2023/11/16 05:09:22;;;;;;;9.50;2.60;;;8.90;99.90;;;;;;5115578;28;20451;-81
2023/11/16 05:11:53;;;;;;;8.97;2.43;;;8.90;99.90;;;;;;5116899;28;20491;-81
2023/11/16 05:14:20;;;;;;;8.20;2.83;;;9.00;99.90;;;;;;5113085;28;20450;-80
2023/11/16 05:16:48;;;;;;;10.33;3.80;;;9.00;99.90;;;;;;5099425;28;20473;-80
2023/11/16 05:19:15;;;;;;;8.37;3.30;;;9.00;99.90;;;;;;5113986;28;20445;-81
2023/11/16 05:21:41;;;;;;;7.60;2.90;;;9.00;99.90;;;;;;5106546;28;20454;-82
2023/11/16 05:24:09;;;;;;;13.30;3.40;;;9.10;99.90;;;;;;5115562;28;20445;-81
2023/11/16 05:26:38;;;;;;;11.10;3.10;;;9.00;99.90;;;;;;5110060;28;20478;-81
2023/11/16 05:29:05;;;;;;;9.83;3.10;;;9.10;99.90;;;;;;5108744;28;20456;-82
2023/11/16 05:31:32;;;;;;;9.47;3.03;;;9.20;99.90;;;;;;5130237;28;20506;-83
2023/11/16 05:34:00;;;;;;;12.63;3.37;;;9.10;99.90;;;;;;5130558;28;20455;-80
2023/11/16 05:36:29;;;;;;;6.90;3.20;;;9.20;99.90;;;;;;5132288;28;20476;-84
2023/11/16 05:38:56;;;;;;;5.37;2.67;;;9.20;99.90;;;;;;5128398;28;20458;-82
2023/11/16 05:41:23;;;;;;;6.20;2.80;;;9.20;99.90;;;;;;5122162;28;20479;-83
2023/11/16 05:43:50;;;;;;;5.73;2.80;;;9.20;99.90;;;;;;5134239;28;20516;-84
2023/11/16 05:46:17;;;;;;;5.97;3.40;;;9.20;99.90;;;;;;5119714;28;20569;-84
2023/11/16 05:48:44;;;;;;;8.67;3.20;;;9.20;99.90;;;;;;5120257;28;20483;-84
2023/11/16 05:51:13;;;;;;;9.43;2.60;;;9.10;99.90;;;;;;5106778;28;20513;-83
2023/11/16 05:53:39;;;;;;;10.63;3.40;;;9.10;99.90;;;;;;5107906;28;20945;-84
2023/11/16 05:56:07;;;;;;;12.60;4.80;;;9.10;99.90;;;;;;5117259;28;20481;-84
2023/11/16 05:58:33;;;;;;;9.23;4.37;;;9.10;99.90;;;;;;5118541;28;21023;-83
2023/11/16 06:01:00;;;;;;;7.83;4.07;;;9.00;99.90;;;;;;5116315;28;20469;-81
2023/11/16 06:03:28;;;;;;;6.70;4.13;;;9.00;99.90;;;;;;5111570;28;20463;-81
2023/11/16 06:05:57;;;;;;;7.90;2.90;;;9.10;99.90;;;;;;5117568;28;20574;-82
2023/11/16 06:08:26;;;;;;;7.13;3.37;;;9.10;99.90;;;;;;5116143;28;20474;-81
2023/11/16 06:10:53;;;;;;;8.10;3.63;;;9.10;99.90;;;;;;5115624;28;20549;-82
2023/11/16 06:13:22;;;;;;;8.40;3.90;;;9.10;99.90;;;;;;5116744;28;20461;-81
2023/11/16 06:15:49;;;;;;;11.40;4.10;;;9.10;99.90;;;;;;5105452;28;20476;-82
2023/11/16 06:18:17;;;;;;;5.97;3.37;;;9.10;99.90;;;;;;5098787;28;20453;-82
2023/11/16 06:20:45;;;;;;;11.13;3.80;;;9.20;99.90;;;;;;5106165;28;20451;-82
2023/11/16 06:23:11;;;;;;;6.37;3.20;;;9.20;99.90;;;;;;5114379;28;20990;-82
2023/11/16 06:25:40;;;;;;;10.83;3.50;;;9.20;99.90;;;;;;5107891;28;20991;-81
2023/11/16 06:28:07;;;;;;;7.67;3.90;;;9.30;99.90;;;;;;5111553;28;20452;-82
2023/11/16 06:30:34;;;;;;;11.40;3.93;;;9.30;99.90;;;;;;5115535;28;20871;-81
2023/11/16 06:33:01;;;;;;;10.97;3.07;;;9.20;99.90;;;;;;5117361;28;20464;-82
2023/11/16 06:35:28;;;;;;;8.50;4.40;;;9.20;99.90;;;;;;5108475;28;20530;-81
2023/11/16 06:37:55;;;;;;;7.37;5.23;;;9.20;99.90;;;;;;5110461;28;20531;-82
2023/11/16 06:40:21;;;;;;;5.47;3.13;;;9.30;99.90;;;;;;5103903;28;20479;-82
2023/11/16 06:42:50;;;;;;;13.30;4.00;;;9.30;99.90;;;;;;5108318;28;20543;-83
2023/11/16 06:45:17;;;;;;;10.97;4.00;;;9.30;99.90;;;;;;5109425;28;20867;-82
2023/11/16 06:47:45;;;;;;;9.60;3.63;;;9.20;99.90;;;;;;5115813;28;20848;-82
2023/11/16 06:50:13;;;;;;;10.67;4.00;;;9.20;99.90;;;;;;5117631;28;20453;-82
2023/11/16 06:52:43;;;;;;;8.30;5.10;;;9.20;99.90;;;;;;5118075;28;20495;-81
2023/11/16 06:55:12;;;;;;;6.13;3.37;;;9.20;99.90;;;;;;5118418;28;20548;-82
2023/11/16 06:57:40;;;;;;;9.03;4.00;;;9.20;99.90;;;;;;5117181;28;20531;-80
2023/11/16 07:00:15;;;;;;;11.83;4.70;;;9.10;99.90;;;;;;5104187;28;20458;-82
2023/11/16 07:02:43;;;;;;;8.33;3.93;;;9.00;99.90;;;;;;5097895;28;20454;-83
2023/11/16 07:05:10;;;;;;;9.13;3.43;;;9.00;99.90;;;;;;5105520;28;20475;-82
2023/11/16 07:07:39;;;;;;;8.00;4.00;;;9.00;99.90;;;;;;5111229;28;21035;-82
2023/11/16 07:10:08;;;;;;;9.43;3.60;;;9.00;99.90;;;;;;5109356;28;20826;-82
2023/11/16 07:12:35;;;;;;;9.87;3.93;;;9.00;99.90;;;;;;5113730;28;20855;-83
2023/11/16 07:15:05;;;;;;;15.20;6.07;;;8.90;99.90;;;;;;5112910;28;20595;-81
2023/11/16 07:17:33;;;;;;;12.37;3.13;;;9.00;99.90;;;;;;5108731;28;20524;-82
2023/11/16 07:20:00;;;;;;;10.50;4.23;;;9.00;99.90;;;;;;5102670;28;20451;-83
2023/11/16 07:22:29;;;;;;;11.60;3.70;;;8.90;99.90;;;;;;5105603;28;20522;-82
2023/11/16 07:24:56;;;;;;;8.90;2.90;;;8.90;99.90;;;;;;5116787;28;20830;-82
2023/11/16 07:27:23;;;;;;;9.97;4.27;;;9.00;99.90;;;;;;5116379;28;20496;-82
2023/11/16 07:29:50;;;;;;;14.70;3.50;;;9.00;99.90;;;;;;5110379;28;20456;-83
2023/11/16 07:32:17;;;;;;;10.80;3.50;;;9.00;99.90;;;;;;5112648;28;20571;-81
2023/11/16 07:34:47;;;;;;;8.40;3.23;;;9.00;99.90;;;;;;5101843;28;20457;-82
2023/11/16 07:37:14;;;;;;;13.00;4.30;;;9.10;99.90;;;;;;5104517;28;20489;-82
2023/11/16 07:39:41;;;;;;;6.40;3.50;;;9.10;99.90;;;;;;5101407;28;20462;-82
2023/11/16 07:42:09;;;;;;;8.07;3.90;;;9.20;99.90;;;;;;5102394;28;20453;-82
2023/11/16 07:44:37;;;;;;;9.50;6.07;;;9.20;99.90;;;;;;5101743;28;20463;-82
2023/11/16 07:47:05;;;;;;;10.53;4.17;;;9.20;99.90;;;;;;5103311;28;20872;-82
2023/11/16 07:49:33;;;;;;;12.63;3.90;;;9.30;99.90;;;;;;5120635;28;20456;-79
2023/11/16 07:52:02;;;;;;;11.47;3.07;;;9.20;99.90;;;;;;5120409;27;20512;-83
2023/11/16 07:54:29;;;;;;;11.20;4.43;;;9.20;99.90;;;;;;5118269;28;20461;-82
2023/11/16 07:57:01;;;;;;;7.67;2.63;;;9.30;99.90;;;;;;5101152;28;20485;-83
2023/11/16 07:59:31;;;;;;;11.33;3.50;;;9.30;99.90;;;;;;5107578;28;20455;-82
2023/11/16 08:02:00;;;;;;;11.97;4.00;;;9.40;99.90;;;;;;5119144;28;20457;-82
2023/11/16 08:04:26;;;;;;;8.27;3.17;;;9.50;99.90;;;;;;5125625;28;20456;-79
2023/11/16 08:06:54;;;;;;;9.20;4.70;;;9.60;99.90;;;;;;5120857;28;21051;-82
2023/11/16 08:09:23;;;;;;;9.47;3.60;;;9.70;99.90;;;;;;5100566;28;20522;-82
2023/11/16 08:11:53;;;;;;;9.33;3.93;;;9.70;99.90;;;;;;5110212;28;20552;-82
2023/11/16 08:14:21;;;;;;;8.80;3.80;;;9.70;99.90;;;;;;5113471;28;20501;-82
2023/11/16 08:16:49;;;;;;;7.83;3.30;;;9.80;99.90;;;;;;5116558;28;20481;-82
2023/11/16 08:19:16;;;;;;;9.73;5.20;;;9.90;99.90;;;;;;5104148;28;20462;-82
2023/11/16 08:21:45;;;;;;;7.63;3.60;;;9.90;99.90;;;;;;5115092;28;20483;-81
2023/11/16 08:24:15;;;;;;;8.50;3.57;;;9.90;99.90;;;;;;5122676;28;20816;-82
2023/11/16 08:26:43;;;;;;;12.93;3.40;;;10.00;99.90;;;;;;5122464;28;20547;-82
2023/11/16 08:29:10;;;;;;;7.80;3.67;;;10.00;99.90;;;;;;5111806;28;20442;-81
2023/11/16 08:31:36;;;;;;;9.03;3.93;;;9.90;99.90;;;;;;5112110;28;20482;-84
2023/11/16 08:34:04;;;;;;;11.33;3.50;;;9.90;99.90;;;;;;5104633;28;20887;-82
2023/11/16 08:36:31;;;;;;;8.60;3.77;;;10.00;99.90;;;;;;5105857;28;20471;-83
2023/11/16 08:38:58;;;;;;;8.83;3.93;;;10.00;99.90;;;;;;5107707;28;20503;-83
2023/11/16 08:41:26;;;;;;;8.07;3.77;;;10.10;99.90;;;;;;5120472;28;20448;-83
2023/11/16 08:43:54;;;;;;;10.53;3.77;;;10.10;99.90;;;;;;5120372;27;20607;-83
2023/11/16 08:46:24;;;;;;;9.67;4.73;;;10.10;99.90;;;;;;5116976;28;20490;-83
2023/11/16 08:48:51;;;;;;;6.20;3.37;;;10.20;99.90;;;;;;5107785;28;20449;-82
2023/11/16 08:51:22;;;;;;;12.30;3.47;;;10.10;99.90;;;;;;5107664;28;20488;-82
2023/11/16 08:53:55;;;;;;;6.50;3.53;;;10.10;99.90;;;;;;5124084;28;20457;-84
2023/11/16 08:56:24;;;;;;;7.40;3.70;;;10.20;99.90;;;;;;5121386;28;20917;-82
2023/11/16 08:58:52;;;;;;;10.93;4.13;;;10.20;99.90;;;;;;5120395;28;21041;-82
2023/11/16 09:01:21;;;;;;;10.83;4.73;;;10.30;99.90;;;;;;5104143;28;20897;-82
2023/11/16 09:03:49;;;;;;;10.13;3.53;;;10.20;99.90;;;;;;5100285;28;20450;-82
2023/11/16 09:06:18;;;;;;;9.17;3.60;;;10.10;99.90;;;;;;5115439;28;20885;-82
2023/11/16 09:08:45;;;;;;;8.33;3.60;;;10.20;99.90;;;;;;5109632;28;20461;-80
2023/11/16 09:11:16;;;;;;;7.30;3.17;;;10.10;99.90;;;;;;5109244;28;20467;-82
2023/11/16 09:13:44;;;;;;;5.53;3.30;;;10.10;99.90;;;;;;5116137;28;20448;-82
2023/11/16 09:16:10;;;;;;;10.90;3.90;;;10.10;99.90;;;;;;5119143;28;20561;-82
2023/11/16 09:18:41;;;;;;;6.60;3.50;;;10.20;99.90;;;;;;5119925;28;20464;-81
2023/11/16 09:21:09;;;;;;;7.50;3.30;;;10.20;99.90;;;;;;5112792;27;20833;-81
2023/11/16 09:23:36;;;;;;;8.83;3.50;;;10.20;99.90;;;;;;5104284;28;20528;-79
2023/11/16 09:26:04;;;;;;;12.07;3.90;;;10.10;99.90;;;;;;5110253;28;20455;-81
2023/11/16 09:28:35;;;;;;;12.93;4.77;;;10.00;99.90;;;;;;5116298;28;20477;-83
2023/11/16 09:31:02;;;;;;;8.57;4.10;;;10.00;99.90;;;;;;5107866;28;20464;-83
2023/11/16 09:33:29;;;;;;;7.57;3.77;;;10.00;99.90;;;;;;5111705;28;20496;-82
2023/11/16 09:35:58;;;;;;;7.97;4.60;;;10.00;99.90;;;;;;5104074;28;20509;-82
2023/11/16 09:38:25;;;;;;;6.63;3.67;;;10.10;99.90;;;;;;5108999;28;20449;-82
2023/11/16 09:40:52;;;;;;;6.87;4.10;;;10.20;99.90;;;;;;5111765;28;20456;-82
2023/11/16 09:43:21;;;;;;;7.93;3.90;;;10.30;99.90;;;;;;5106715;28;20445;-81
2023/11/16 09:45:49;;;;;;;9.93;3.67;;;10.30;99.90;;;;;;5098443;28;20473;-82
2023/11/16 09:48:20;;;;;;;9.17;3.30;;;10.30;99.90;;;;;;5110336;28;20495;-81
2023/11/16 09:50:48;;;;;;;7.73;3.70;;;10.30;99.90;;;;;;5107912;28;20520;-82
2023/11/16 09:53:17;;;;;;;10.17;3.70;;;10.20;99.90;;;;;;5116491;28;20869;-82
2023/11/16 09:55:50;;;;;;;8.10;3.27;;;10.30;99.90;;;;;;5118917;28;20952;-81
2023/11/16 09:58:23;;;;;;;8.57;3.17;;;10.40;99.90;;;;;;5111496;28;20446;-82
2023/11/16 10:00:55;;;;;;;12.47;3.67;;;10.40;99.90;;;;;;5111048;28;20485;-82
2023/11/16 10:03:25;;;;;;;9.47;3.23;;;10.50;99.90;;;;;;5109562;28;20430;-81
2023/11/16 10:05:55;;;;;;;9.73;4.20;;;10.50;99.90;;;;;;5104816;28;20523;-81
2023/11/16 10:08:23;;;;;;;7.50;3.90;;;10.40;99.90;;;;;;5112220;28;20453;-81
2023/11/16 10:10:55;;;;;;;11.97;4.30;;;10.40;99.90;;;;;;5115332;28;20832;-80
2023/11/16 10:13:23;;;;;;;7.67;3.27;;;10.50;99.90;;;;;;5110373;28;21111;-82
2023/11/16 10:15:52;;;;;;;7.40;3.67;;;10.50;99.90;;;;;;5100120;28;20472;-81
2023/11/16 10:18:19;;;;;;;9.83;4.67;;;10.50;99.90;;;;;;5113000;28;20451;-82
2023/11/16 10:20:46;;;;;;;8.10;4.13;;;10.50;99.90;;;;;;5118621;28;20952;-81
2023/11/16 10:23:13;;;;;;;8.73;3.40;;;10.50;99.90;;;;;;5119103;28;20544;-82
2023/11/16 10:25:42;;;;;;;10.13;3.73;;;10.60;99.90;;;;;;5117941;28;20468;-83
2023/11/16 10:28:19;;;;;;;8.60;4.13;;;10.60;99.90;;;;;;5117685;28;20445;-82
2023/11/16 10:30:50;;;;;;;6.80;4.40;;;10.80;99.90;;;;;;5118239;28;20811;-82
2023/11/16 10:33:20;;;;;;;10.03;3.97;;;10.80;96.10;;;;;;5118793;28;20902;-82
2023/11/16 10:35:46;;;;;;;9.30;4.77;;;10.80;71.30;;;;;;5118526;28;20533;-82
2023/11/16 10:38:15;;;;;;;11.23;5.43;;;10.80;65.40;;;;;;5118379;28;20452;-82
2023/11/16 10:40:44;;;;;;;11.93;4.17;;;10.80;75.60;;;;;;5117510;28;20448;-81
2023/11/16 10:43:11;;;;;;;8.87;3.60;;;10.80;84.20;;;;;;5110686;28;20471;-82
2023/11/16 10:45:42;;;;;;;6.27;4.20;;;10.90;90.20;;;;;;5106963;28;20525;-81
2023/11/16 10:48:13;;;;;;;11.10;5.03;;;10.90;90.90;;;;;;5104810;28;20473;-81
2023/11/16 10:50:40;;;;;;;8.80;4.70;;;11.00;60.60;;;;;;5098419;28;20519;-82
2023/11/16 10:53:13;;;;;;;8.70;3.63;;;10.90;35.90;;;;;;5104085;28;20581;-82
2023/11/16 10:55:41;;;;;;;9.30;4.40;;;11.00;43.20;;;;;;5101191;28;20552;-81
2023/11/16 10:58:11;;;;;;;13.17;4.30;;;11.10;45.50;;;;;;5118747;28;21015;-82
2023/11/16 11:00:41;;;;;;;8.17;4.83;;;11.10;45.70;;;;;;5117075;28;20540;-83
2023/11/16 11:03:16;;;;;;;11.50;4.90;;;11.00;35.70;;;;;;5114479;28;20457;-83
2023/11/16 11:05:52;;;;;;;12.20;5.10;;;11.00;43.90;;;;;;5103731;28;20510;-82
2023/11/16 11:08:20;;;;;;;12.63;4.70;;;11.00;41.40;;;;;;5114994;28;20452;-82
2023/11/16 11:10:52;;;;;;;8.70;3.90;;;10.90;41.70;;;;;;5119503;28;20803;-83
2023/11/16 11:13:26;;;;;;;6.40;4.00;;;10.90;48.50;;;;;;5119378;28;20556;-83
2023/11/16 11:15:57;;;;;;;12.53;5.07;;;10.90;60.50;;;;;;5120121;28;20500;-83
2023/11/16 11:18:34;;;;;;;5.30;3.60;;;10.90;44.30;;;;;;5118062;28;20467;-83
2023/11/16 11:21:08;;;;;;;7.17;3.60;;;10.90;34.60;;;;;;5120097;28;20459;-81
2023/11/16 11:23:39;;;;;;;8.40;3.90;;;10.90;38.50;;;;;;5119514;28;20483;-84
2023/11/16 11:26:14;;;;;;;9.03;4.40;;;10.80;36.70;;;;;;5112231;28;20465;-83
2023/11/16 11:28:42;;;;;;;9.50;3.83;;;10.80;27.30;;;;;;5101364;28;20454;-82
2023/11/16 11:31:12;;;;;;;9.67;3.47;;;10.80;17.60;;;;;;5098289;28;20511;-82
2023/11/16 11:33:42;;;;;;;6.43;3.90;;;10.80;6.50;;;;;;5100162;28;21020;-83
2023/11/16 11:36:21;;;;;;;10.30;4.07;;;10.80;13.60;;;;;;5120436;28;20540;-82
2023/11/16 11:38:58;;;;;;;7.50;3.60;;;10.80;23.20;;;;;;5120233;28;20441;-83
2023/11/16 11:41:33;;;;;;;8.97;3.47;;;10.70;30.60;;;;;;5116170;28;20531;-81
2023/11/16 11:44:14;;;;;;;8.57;3.70;;;10.80;31.90;;;;;;5114595;28;20432;-82
2023/11/16 11:46:41;;;;;;;11.83;4.70;;;10.80;48.90;;;;;;5121409;28;20475;-81
2023/11/16 11:49:15;;;;;;;10.73;4.17;;;10.70;71.50;;;;;;5118784;28;20459;-80
2023/11/16 11:51:45;;;;;;;10.63;4.40;;;10.60;99.90;;;;;;5119808;28;20973;-82
2023/11/16 11:54:13;;;;;;;11.27;3.60;;;10.60;99.90;;;;;;5122039;28;20495;-82
2023/11/16 11:56:48;;;;;;;6.50;4.10;;;10.70;99.90;;;;;;5121822;28;20472;-81
2023/11/16 11:59:54;;;;;;;5.57;3.50;;;10.70;99.90;;;;;;5120923;28;20463;-81
2023/11/16 12:05:45;;;;;;;7.87;3.87;;;10.70;99.90;;;;;;5018018;28;20544;-81
2023/11/16 12:08:15;;;;;;;4.50;3.60;;;10.70;99.90;;;;;;5051567;28;20481;-83
2023/11/16 12:10:51;;;;;;;6.07;4.17;;;10.70;99.90;;;;;;5106497;28;20536;-82
2023/11/16 12:13:18;;;;;;;8.83;4.70;;;10.70;99.90;;;;;;5113686;28;20485;-83
2023/11/16 12:15:47;;;;;;;5.87;3.57;;;10.70;99.90;;;;;;5107902;28;20472;-82
2023/11/16 12:18:15;;;;;;;5.47;3.90;;;10.70;99.90;;;;;;5117081;28;20982;-78
2023/11/16 12:20:42;;;;;;;5.87;3.60;;;10.70;99.90;;;;;;5109907;28;20457;-82
2023/11/16 12:23:09;;;;;;;7.40;3.60;;;10.70;99.90;;;;;;5103348;28;20961;-83
2023/11/16 12:25:38;;;;;;;5.90;3.80;;;10.70;99.90;;;;;;5108892;28;20484;-82
2023/11/16 12:28:05;;;;;;;6.50;3.10;;;10.60;99.90;;;;;;5100049;28;20460;-83
2023/11/16 12:30:36;;;;;;;6.37;3.50;;;10.60;99.90;;;;;;5118967;28;20491;-83
2023/11/16 12:33:07;;;;;;;8.37;3.10;;;10.60;99.90;;;;;;5121022;28;20483;-82
2023/11/16 12:35:38;;;;;;;6.10;3.17;;;10.60;99.90;;;;;;5120596;28;20539;-84
2023/11/16 12:38:05;;;;;;;6.30;3.70;;;10.50;99.90;;;;;;5115523;28;20848;-83
2023/11/16 12:40:32;;;;;;;8.20;4.70;;;10.60;99.90;;;;;;5118846;28;20444;-83
2023/11/16 12:43:01;;;;;;;6.20;4.27;;;10.50;99.90;;;;;;5115244;27;20455;-83
2023/11/16 12:45:28;;;;;;;11.37;5.00;;;10.50;99.90;;;;;;5100257;28;21012;-84
2023/11/16 12:47:55;;;;;;;10.07;4.17;;;10.50;99.90;;;;;;5099943;28;20858;-83
2023/11/16 12:50:23;;;;;;;8.70;4.50;;;10.40;99.90;;;;;;5100153;28;20481;-83
2023/11/16 12:52:51;;;;;;;8.23;4.20;;;10.50;99.90;;;;;;5099785;28;21102;-82
2023/11/16 12:55:18;;;;;;;9.20;3.97;;;10.50;99.90;;;;;;5107199;28;20472;-83
2023/11/16 12:57:46;;;;;;;12.67;5.63;;;10.60;99.90;;;;;;5112730;28;20925;-82
2023/11/16 13:00:17;;;;;;;8.70;3.67;;;10.60;99.90;;;;;;5120024;27;20834;-83